Time;durP1;ratioP1;P1;durP2;ratioP2;P2;SDS_P1;SDS_P2;PMS_P1;PMS_P2;Temp;Humidity;BMP_temperature;BMP_pressure;BME280_temperature;BME280_humidity;BME280_pressure;Samples;Min_cycle;Max_cycle;Signal;HPM_P1;HPM_P2
2021/10/18 00:00:25;;;;;;;;;13.33;12.33;;;;;18.49;50.05;101750.56;4978378;28;46318;-53
2021/10/18 00:02:50;;;;;;;;;12.33;12.33;;;;;18.49;50.18;101753.22;4978970;28;45466;-55
2021/10/18 00:05:16;;;;;;;;;12.33;12.33;;;;;18.49;50.18;101763.88;4979015;28;45398;-55
2021/10/18 00:07:42;;;;;;;;;16.00;11.67;;;;;18.49;50.15;101755.91;4978942;28;45324;-53
2021/10/18 00:10:09;;;;;;;;;13.00;12.00;;;;;18.48;49.94;101747.03;4978630;28;46122;-56
2021/10/18 00:12:35;;;;;;;;;11.67;11.67;;;;;18.48;50.07;101759.47;4978677;28;45484;-61
2021/10/18 00:15:02;;;;;;;;;12.67;12.00;;;;;18.49;50.14;101762.13;4978458;28;45206;-55
2021/10/18 00:17:27;;;;;;;;;18.00;14.00;;;;;18.48;49.98;101762.13;4978763;28;45473;-53
2021/10/18 00:19:53;;;;;;;;;15.00;12.00;;;;;18.48;49.99;101754.13;4978224;28;46297;-49
2021/10/18 00:22:18;;;;;;;;;11.00;10.00;;;;;18.48;49.91;101762.13;4978580;28;45271;-53
2021/10/18 00:24:44;;;;;;;;;12.67;12.67;;;;;18.48;50.00;101757.69;4978557;28;45389;-55
2021/10/18 00:27:09;;;;;;;;;14.00;11.00;;;;;18.48;49.90;101760.34;4978679;28;45465;-53
2021/10/18 00:29:34;;;;;;;;;13.33;13.33;;;;;18.48;49.81;101759.47;4978563;28;45317;-53
2021/10/18 00:32:00;;;;;;;;;14.33;12.33;;;;;18.48;49.69;101755.03;4978381;28;45440;-53
2021/10/18 00:34:25;;;;;;;;;12.00;11.33;;;;;18.48;49.60;101754.13;4978580;28;45413;-53
2021/10/18 00:36:51;;;;;;;;;12.67;12.67;;;;;18.48;49.59;101757.69;4978734;28;45459;-50
2021/10/18 00:39:16;;;;;;;;;12.00;11.00;;;;;18.47;49.57;101753.25;4978301;28;46989;-47
2021/10/18 00:41:42;;;;;;;;;14.00;12.67;;;;;18.47;49.70;101747.91;4978250;28;45387;-48
2021/10/18 00:44:07;;;;;;;;;10.67;9.67;;;;;18.50;49.80;101757.69;4978189;28;45424;-54
2021/10/18 00:46:32;;;;;;;;;12.33;11.33;;;;;18.48;49.59;101759.47;4978705;28;45396;-51
2021/10/18 00:48:58;;;;;;;;;15.67;12.67;;;;;18.47;49.60;101758.56;4977739;28;46133;-51
2021/10/18 00:51:26;;;;;;;;;12.33;11.33;;;;;18.46;49.80;101766.56;4978000;28;45229;-49
2021/10/18 00:53:54;;;;;;;;;13.33;12.00;;;;;18.46;49.83;101764.78;4978445;28;45400;-50
2021/10/18 00:56:20;;;;;;;;;11.00;11.00;;;;;18.47;49.74;101765.66;4978324;28;45453;-51
2021/10/18 00:58:48;;;;;;;;;10.00;9.33;;;;;18.48;49.32;101770.09;4977915;28;46359;-48
2021/10/18 01:01:14;;;;;;;;;11.00;11.00;;;;;18.47;49.70;101771.88;4977385;28;45235;-48
2021/10/18 01:03:40;;;;;;;;;11.00;11.00;;;;;18.48;49.45;101778.09;4978041;28;45301;-48
2021/10/18 01:06:05;;;;;;;;;12.33;11.33;;;;;18.47;49.35;101770.97;4978363;28;45319;-51
2021/10/18 01:08:30;;;;;;;;;11.33;10.33;;;;;18.48;49.58;101778.09;4977815;28;47260;-49
2021/10/18 01:10:56;;;;;;;;;11.67;9.67;;;;;18.47;49.41;101768.31;4977973;28;45271;-51
2021/10/18 01:13:22;;;;;;;;;16.33;13.33;;;;;18.47;49.81;101770.97;4977494;28;45451;-49
2021/10/18 01:15:48;;;;;;;;;13.00;11.00;;;;;18.47;49.43;101770.97;4978104;28;45478;-48
2021/10/18 01:18:13;;;;;;;;;10.33;9.67;;;;;18.47;49.20;101776.31;4977251;28;46282;-52
2021/10/18 01:20:40;;;;;;;;;11.67;10.33;;;;;18.47;49.44;101768.31;4977450;28;45413;-49
2021/10/18 01:23:07;;;;;;;;;14.00;10.33;;;;;18.47;49.26;101770.97;4977611;28;45252;-52
2021/10/18 01:25:33;;;;;;;;;11.00;10.33;;;;;18.46;49.54;101771.88;4977929;28;45330;-54
2021/10/18 01:27:58;;;;;;;;;14.67;12.33;;;;;18.47;49.21;101768.31;4977510;28;45168;-48
2021/10/18 01:30:25;;;;;;;;;12.00;10.33;;;;;18.46;49.31;101772.78;4977396;28;45244;-49
2021/10/18 01:32:51;;;;;;;;;14.00;10.33;;;;;18.46;49.05;101771.88;4977680;28;45321;-52
2021/10/18 01:35:16;;;;;;;;;11.33;11.33;;;;;18.46;49.24;101766.56;4977474;28;45604;-52
2021/10/18 01:37:42;;;;;;;;;11.67;11.00;;;;;18.46;48.91;101778.09;4977263;28;46007;-53
2021/10/18 01:40:13;;;;;;;;;11.00;9.67;;;;;18.45;49.23;101770.09;4977547;28;45385;-54
2021/10/18 01:42:39;;;;;;;;;10.67;8.67;;;;;18.47;49.33;101773.66;4977498;28;45434;-53
2021/10/18 01:45:11;;;;;;;;;12.67;12.00;;;;;18.45;49.13;101760.34;4977440;28;45513;-54
2021/10/18 01:47:36;;;;;;;;;9.00;9.00;;;;;18.45;49.22;101755.00;4977057;28;46305;-48
2021/10/18 01:50:09;;;;;;;;;10.67;10.00;;;;;18.45;49.23;101755.00;4976899;28;45531;-48
2021/10/18 01:52:34;;;;;;;;;12.00;10.00;;;;;18.44;49.36;101753.25;4977234;28;45376;-52
2021/10/18 01:54:59;;;;;;;;;11.00;10.33;;;;;18.45;49.30;101751.47;4977548;28;45393;-52
2021/10/18 01:57:25;;;;;;;;;13.33;10.67;;;;;18.45;49.04;101748.78;4977120;28;46199;-49
2021/10/18 01:59:50;;;;;;;;;10.33;9.67;;;;;18.44;48.98;101739.03;4976961;28;45455;-50
2021/10/18 02:02:15;;;;;;;;;12.00;11.00;;;;;18.44;49.00;101741.72;4977279;28;45353;-49
2021/10/18 02:04:41;;;;;;;;;12.67;11.67;;;;;18.44;48.77;101745.25;4977371;28;45356;-52
2021/10/18 02:07:06;;;;;;;;;11.00;11.00;;;;;18.44;49.15;101753.25;4976956;28;47203;-51
2021/10/18 02:09:31;;;;;;;;;11.67;10.67;;;;;18.45;48.97;101748.78;4976954;28;45397;-49
2021/10/18 02:11:57;;;;;;;;;9.67;9.67;;;;;18.43;48.96;101743.47;4977141;28;45357;-51
2021/10/18 02:14:22;;;;;;;;;11.00;9.33;;;;;18.45;49.15;101743.47;4980963;28;45501;-51
2021/10/18 02:16:48;;;;;;;;;9.67;9.67;;;;;18.44;48.62;101739.03;4979427;28;46137;-53
2021/10/18 02:19:13;;;;;;;;;12.67;11.67;;;;;18.44;48.89;101747.03;4980330;28;45288;-49
2021/10/18 02:21:38;;;;;;;;;9.33;9.00;;;;;18.43;49.10;101738.16;4980299;28;45198;-51
2021/10/18 02:24:04;;;;;;;;;17.33;11.33;;;;;18.44;48.93;101736.38;4980466;28;45464;-50
2021/10/18 02:26:29;;;;;;;;;14.00;12.33;;;;;18.43;48.89;101746.13;4980101;28;46277;-53
2021/10/18 02:28:55;;;;;;;;;13.00;9.33;;;;;18.43;48.79;101746.13;4980385;28;45177;-52
2021/10/18 02:31:21;;;;;;;;;12.33;10.67;;;;;18.43;48.67;101737.25;4980393;28;45616;-51
2021/10/18 02:33:46;;;;;;;;;10.67;10.67;;;;;18.43;48.97;101734.59;4980249;28;45441;-52
2021/10/18 02:36:12;;;;;;;;;11.33;11.33;;;;;18.42;48.93;101731.06;4979210;28;45675;-53
2021/10/18 02:38:39;;;;;;;;;10.33;10.33;;;;;18.43;48.99;101732.81;4979967;28;45420;-53
2021/10/18 02:41:05;;;;;;;;;12.67;12.67;;;;;18.43;48.81;101734.59;4980073;28;45344;-52
2021/10/18 02:43:30;;;;;;;;;9.00;8.67;;;;;18.43;48.92;101729.28;4980114;28;45461;-52
2021/10/18 02:45:56;;;;;;;;;11.33;10.00;;;;;18.43;48.79;101734.59;4979865;28;47112;-57
2021/10/18 02:48:21;;;;;;;;;13.67;11.00;;;;;18.42;48.85;101736.41;4979610;28;45585;-51
2021/10/18 02:50:46;;;;;;;;;13.00;9.67;;;;;18.42;48.57;101728.41;4979795;28;45720;-49
2021/10/18 02:53:12;;;;;;;;;12.33;11.00;;;;;18.42;48.55;101727.50;4980034;28;45488;-52
2021/10/18 02:55:37;;;;;;;;;11.00;10.67;;;;;18.43;48.66;101724.84;4979576;28;45452;-54
2021/10/18 02:58:02;;;;;;;;;13.00;10.67;;;;;18.42;48.60;101717.75;4979912;28;45219;-51
2021/10/18 03:00:28;;;;;;;;;11.00;11.00;;;;;18.42;48.44;101716.88;4979354;28;45334;-49
2021/10/18 03:02:53;;;;;;;;;12.00;12.00;;;;;18.42;48.74;101707.09;4979805;28;45464;-51
2021/10/18 03:05:19;;;;;;;;;11.00;11.00;;;;;18.41;48.29;101718.63;4979739;28;45983;-58
2021/10/18 03:07:50;;;;;;;;;15.33;12.67;;;;;18.43;48.58;101710.63;4979561;28;45727;-51
2021/10/18 03:10:16;;;;;;;;;9.33;9.00;;;;;18.41;48.64;101707.97;4979841;28;45367;-55
2021/10/18 03:12:41;;;;;;;;;13.00;10.67;;;;;18.42;48.70;101706.22;4979674;28;45469;-49
2021/10/18 03:15:06;;;;;;;;;10.67;10.67;;;;;18.42;48.70;101706.22;4979499;28;46022;-57
2021/10/18 03:17:32;;;;;;;;;14.33;12.33;;;;;18.40;48.68;101696.44;4979528;28;45424;-52
2021/10/18 03:19:57;;;;;;;;;15.67;12.67;;;;;18.41;48.50;101710.66;4979604;28;45815;-49
2021/10/18 03:22:23;;;;;;;;;9.00;9.00;;;;;18.41;48.48;101705.31;4979610;28;45407;-52
2021/10/18 03:24:48;;;;;;;;;10.67;10.67;;;;;18.40;48.53;101712.41;4977891;28;46061;-52
2021/10/18 03:27:13;;;;;;;;;12.00;11.33;;;;;18.41;48.53;101710.66;4979429;28;45265;-54
2021/10/18 03:29:39;;;;;;;;;14.00;9.67;;;;;18.40;48.43;101719.53;4979587;28;45750;-58
2021/10/18 03:32:04;;;;;;;;;11.00;10.67;;;;;18.40;48.84;101723.06;4979608;28;45516;-55
2021/10/18 03:34:30;;;;;;;;;9.33;9.33;;;;;18.39;48.36;101712.41;4979045;28;45890;-57
2021/10/18 03:36:55;;;;;;;;;14.33;11.33;;;;;18.39;48.56;101712.41;4979032;28;45441;-58
2021/10/18 03:39:20;;;;;;;;;10.67;10.33;;;;;18.38;48.72;101716.84;4978838;28;45338;-54
2021/10/18 03:41:46;;;;;;;;;12.00;11.33;;;;;18.39;48.49;101715.06;4979273;28;45476;-53
2021/10/18 03:44:11;;;;;;;;;11.33;11.33;;;;;18.38;48.56;101716.84;4979083;28;46318;-58
2021/10/18 03:46:37;;;;;;;;;11.33;11.33;;;;;18.39;48.39;101721.31;4979163;28;45294;-56
2021/10/18 03:49:02;;;;;;;;;11.67;10.67;;;;;18.39;48.42;101726.63;4961136;28;45163;-61
2021/10/18 03:51:27;;;;;;;;;9.67;8.00;;;;;18.38;48.42;101726.63;4979487;28;45388;-58
2021/10/18 03:53:53;;;;;;;;;11.33;11.33;;;;;18.39;48.61;101725.72;4978719;28;47109;-53
2021/10/18 03:56:18;;;;;;;;;10.33;10.33;;;;;18.38;48.61;101726.63;4978992;28;45369;-60
2021/10/18 03:58:44;;;;;;;;;9.00;8.33;;;;;18.38;48.48;101719.50;4978969;28;45617;-52
2021/10/18 04:01:10;;;;;;;;;10.00;10.00;;;;;18.38;48.32;101726.63;4979046;28;45440;-56
2021/10/18 04:03:36;;;;;;;;;9.67;9.00;;;;;18.38;48.06;101734.63;4978798;28;46390;-54
2021/10/18 04:06:02;;;;;;;;;10.67;10.67;;;;;18.37;48.58;101731.06;4978768;28;45371;-55
2021/10/18 04:08:31;;;;;;;;;11.00;10.00;;;;;18.38;48.08;101732.81;4961663;28;45312;-59
2021/10/18 04:10:56;;;;;;;;;13.00;9.33;;;;;18.37;48.17;101733.72;4978811;28;45492;-55
2021/10/18 04:13:22;;;;;;;;;11.00;11.00;;;;;18.37;48.51;101730.16;4978698;28;47340;-54
2021/10/18 04:15:47;;;;;;;;;10.67;10.67;;;;;18.36;48.26;101734.59;4978593;28;45329;-58
2021/10/18 04:18:13;;;;;;;;;12.67;12.67;;;;;18.35;48.21;101727.50;4978947;28;45499;-64
2021/10/18 04:20:38;;;;;;;;;11.00;11.00;;;;;18.36;48.30;101745.25;4978710;28;45638;-59
2021/10/18 04:23:03;;;;;;;;;12.00;12.00;;;;;18.34;48.35;101736.38;4978272;28;47140;-52
2021/10/18 04:25:29;;;;;;;;;12.33;11.67;;;;;18.34;48.32;101739.03;4978497;28;45328;-52
2021/10/18 04:27:54;;;;;;;;;11.67;11.00;;;;;18.36;48.42;101747.91;4978599;28;45325;-57
2021/10/18 04:30:19;;;;;;;;;16.00;13.67;;;;;18.36;48.06;101745.25;4978838;28;45369;-57
2021/10/18 04:32:45;;;;;;;;;11.00;11.00;;;;;18.35;48.42;101753.22;4978288;28;46858;-60
2021/10/18 04:35:11;;;;;;;;;12.67;9.67;;;;;18.34;48.27;101747.00;4977587;28;45578;-56
2021/10/18 04:37:36;;;;;;;;;13.00;12.00;;;;;18.34;48.11;101749.66;4978296;28;45685;-54
2021/10/18 04:40:03;;;;;;;;;16.00;12.67;;;;;18.35;48.44;101759.44;4978347;28;45684;-55
2021/10/18 04:42:28;;;;;;;;;10.33;10.33;;;;;18.36;48.06;101761.22;4978297;28;47239;-54
2021/10/18 04:44:54;;;;;;;;;10.67;9.67;;;;;18.34;48.09;101752.34;4978193;28;45310;-53
2021/10/18 04:47:19;;;;;;;;;13.67;11.00;;;;;18.34;48.16;101755.00;4978139;28;45326;-48
2021/10/18 04:49:45;;;;;;;;;11.67;11.67;;;;;18.35;48.01;101761.22;4978159;28;45389;-52
2021/10/18 04:52:10;;;;;;;;;11.33;10.67;;;;;18.33;48.19;101763.88;4977718;28;47424;-52
2021/10/18 04:54:35;;;;;;;;;12.00;8.33;;;;;18.33;47.96;101766.53;4978287;28;45374;-52
2021/10/18 04:57:01;;;;;;;;;10.00;9.67;;;;;18.32;48.05;101764.75;4978160;28;45429;-55
2021/10/18 04:59:26;;;;;;;;;10.00;10.00;;;;;18.33;47.93;101769.22;4977937;28;45335;-62
2021/10/18 05:01:52;;;;;;;;;13.00;10.33;;;;;18.33;48.40;101778.97;4960429;28;46048;-57
2021/10/18 05:04:17;;;;;;;;;12.00;12.00;;;;;18.32;48.13;101780.72;4977142;28;45407;-56
2021/10/18 05:06:42;;;;;;;;;12.67;12.33;;;;;18.33;48.22;101784.28;4977963;28;45467;-59
2021/10/18 05:09:08;;;;;;;;;13.00;11.00;;;;;18.33;48.16;101792.25;4978421;28;45528;-51
2021/10/18 05:11:33;;;;;;;;;10.33;9.67;;;;;18.32;48.38;101785.19;4977577;28;46269;-54
2021/10/18 05:13:58;;;;;;;;;14.33;13.67;;;;;18.31;48.08;101783.41;4977709;28;45361;-61
2021/10/18 05:16:24;;;;;;;;;15.00;11.67;;;;;18.32;48.26;101788.72;4977825;28;45301;-53
2021/10/18 05:18:49;;;;;;;;;10.00;10.00;;;;;18.29;47.97;101780.72;4978101;28;45364;-53
2021/10/18 05:21:15;;;;;;;;;13.00;12.00;;;;;18.32;47.99;101790.50;4977658;28;46063;-62
2021/10/18 05:23:40;;;;;;;;;13.67;12.00;;;;;18.32;48.03;101791.38;4977559;28;45469;-60
2021/10/18 05:26:06;;;;;;;;;13.00;13.00;;;;;18.31;47.80;101783.41;4977533;28;45443;-55
2021/10/18 05:28:31;;;;;;;;;12.33;10.67;;;;;18.31;47.81;101788.72;4977667;28;45513;-53
2021/10/18 05:30:57;;;;;;;;;10.00;9.67;;;;;18.30;47.81;101787.81;4977270;28;46248;-60
2021/10/18 05:33:22;;;;;;;;;11.67;10.67;;;;;18.30;48.05;101793.13;4977466;28;45286;-52
2021/10/18 05:35:48;;;;;;;;;11.00;11.00;;;;;18.31;48.13;101788.72;4977614;28;45813;-49
2021/10/18 05:38:18;;;;;;;;;12.33;12.33;;;;;18.29;48.24;101780.72;4977664;28;45303;-58
2021/10/18 05:40:43;;;;;;;;;13.33;13.33;;;;;18.38;48.76;101780.72;4977046;28;47252;-51
2021/10/18 05:43:09;;;;;;;;;11.33;10.00;;;;;18.81;48.76;101783.41;4977242;28;45453;-55
2021/10/18 05:45:34;;;;;;;;;12.67;11.00;;;;;19.17;48.59;101780.75;4977450;28;45376;-52
2021/10/18 05:48:00;;;;;;;;;;;;;;;19.47;47.48;101778.91;4979036;28;45258;-55
2021/10/18 05:50:29;;;;;;;;;15.67;12.33;;;;;19.53;46.38;101788.66;4976195;28;45544;-53
2021/10/18 05:52:55;;;;;;;;;11.33;11.33;;;;;19.48;46.30;101779.81;4976966;28;45385;-54
2021/10/18 05:55:21;;;;;;;;;15.67;12.33;;;;;19.39;46.05;101773.63;4977251;28;45276;-54
2021/10/18 05:57:55;;;;;;;;;11.00;11.00;;;;;19.33;45.61;101784.28;4977152;28;45504;-52
2021/10/18 06:00:22;;;;;;;;;16.00;14.00;;;;;19.26;45.85;101786.09;4976879;28;46200;-52
2021/10/18 06:02:49;;;;;;;;;10.00;9.33;;;;;19.19;45.94;101785.19;4977035;28;45357;-52
2021/10/18 06:05:14;;;;;;;;;12.33;11.33;;;;;19.14;45.69;101791.41;4977180;28;45504;-52
2021/10/18 06:07:40;;;;;;;;;11.00;10.67;;;;;19.07;46.04;101796.75;4976933;28;45368;-48
2021/10/18 06:10:07;;;;;;;;;14.00;13.67;;;;;19.04;45.72;101801.16;4976707;28;46436;-51
2021/10/18 06:12:33;;;;;;;;;13.67;13.33;;;;;19.00;45.59;101802.94;4976839;28;45487;-52
2021/10/18 06:14:59;;;;;;;;;14.33;11.33;;;;;18.97;45.71;101805.63;4976816;28;45277;-50
2021/10/18 06:17:24;;;;;;;;;13.67;12.33;;;;;18.93;46.17;101809.19;4977134;28;45403;-48
2021/10/18 06:19:49;;;;;;;;;12.67;11.33;;;;;18.89;46.29;101807.41;4976862;28;46409;-51
2021/10/18 06:22:15;;;;;;;;;13.33;12.67;;;;;18.88;45.84;101810.97;4976709;28;45144;-50
2021/10/18 06:24:40;;;;;;;;;12.67;11.33;;;;;18.84;45.84;101804.75;4976695;28;45435;-52
2021/10/18 06:27:05;;;;;;;;;14.33;14.00;;;;;18.82;46.18;101801.19;4977057;28;45373;-51
2021/10/18 06:29:31;;;;;;;;;13.67;12.33;;;;;18.79;46.16;101802.06;4976743;28;45980;-51
2021/10/18 06:31:57;;;;;;;;;14.00;12.67;;;;;18.78;46.34;101805.66;4976579;28;45282;-50
2021/10/18 06:34:22;;;;;;;;;15.00;14.33;;;;;18.77;46.28;101809.19;4977068;28;45280;-55
2021/10/18 06:36:48;;;;;;;;;17.33;14.33;;;;;18.77;46.27;101806.50;4959549;28;45436;-51
2021/10/18 06:39:13;;;;;;;;;13.67;13.67;;;;;18.74;46.19;101804.72;4976611;28;46078;-55
2021/10/18 06:41:39;;;;;;;;;17.00;14.33;;;;;18.73;46.32;101812.72;4976481;28;45420;-53
2021/10/18 06:44:05;;;;;;;;;15.67;14.00;;;;;18.72;46.18;101808.28;4976658;28;45464;-52
2021/10/18 06:46:30;;;;;;;;;18.00;16.33;;;;;18.71;46.10;101815.41;4976879;28;45321;-52
2021/10/18 06:48:56;;;;;;;;;20.00;16.33;;;;;18.70;45.95;101816.28;4976149;28;45305;-52
2021/10/18 06:51:21;;;;;;;;;19.33;15.00;;;;;18.68;46.00;101809.16;4976665;28;45347;-48
2021/10/18 06:53:51;;;;;;;;;15.00;13.33;;;;;18.67;46.18;101812.72;4976429;28;45369;-55
2021/10/18 06:56:16;;;;;;;;;18.67;15.00;;;;;18.66;46.05;101816.25;4976592;28;45415;-51
2021/10/18 06:58:42;;;;;;;;;22.00;18.00;;;;;18.65;46.39;101814.50;4977508;28;45912;-52
2021/10/18 07:01:07;;;;;;;;;17.67;17.33;;;;;18.65;46.08;101822.50;4979672;28;45454;-56
2021/10/18 07:03:32;;;;;;;;;16.00;15.67;;;;;18.63;46.12;101828.69;4979943;28;45813;-50
2021/10/18 07:06:01;;;;;;;;;15.67;15.33;;;;;18.63;46.04;101820.69;4980002;28;45417;-51
2021/10/18 07:08:26;;;;;;;;;22.33;16.67;;;;;18.61;46.17;101830.47;4979509;28;46181;-54
2021/10/18 07:10:51;;;;;;;;;16.67;16.00;;;;;18.59;45.95;101826.91;4979387;28;45302;-54
2021/10/18 07:13:17;;;;;;;;;15.33;14.33;;;;;18.60;46.19;101834.03;4979805;28;45376;-51
2021/10/18 07:15:42;;;;;;;;;13.67;13.00;;;;;18.60;46.17;101838.44;4979741;28;45448;-54
2021/10/18 07:18:08;;;;;;;;;14.33;13.33;;;;;18.59;46.32;101840.22;4979209;28;46892;-50
2021/10/18 07:20:34;;;;;;;;;19.00;16.67;;;;;18.59;46.02;101842.03;4979436;28;45337;-51
2021/10/18 07:23:01;;;;;;;;;20.33;17.33;;;;;18.58;46.11;101829.56;4979372;28;45289;-52
2021/10/18 07:25:27;;;;;;;;;16.67;16.33;;;;;18.58;45.99;101834.91;4979718;28;45489;-48
2021/10/18 07:27:52;;;;;;;;;18.33;17.00;;;;;18.57;46.23;101834.00;4979080;28;46983;-50
2021/10/18 07:30:18;;;;;;;;;17.00;16.67;;;;;18.55;46.30;101829.59;4979255;28;45461;-54
2021/10/18 07:32:44;;;;;;;;;19.00;17.00;;;;;18.55;45.99;101833.13;4979361;28;45285;-53
2021/10/18 07:35:15;;;;;;;;;16.67;14.33;;;;;18.54;45.99;101827.78;4979461;28;45414;-54
2021/10/18 07:37:48;;;;;;;;;18.67;15.67;;;;;18.54;45.95;101822.47;4979213;28;46636;-52
2021/10/18 07:40:14;;;;;;;;;19.33;18.00;;;;;18.53;46.03;101832.22;4978735;28;45310;-51
2021/10/18 07:42:39;;;;;;;;;15.00;15.00;;;;;18.53;46.00;101829.56;4979107;28;45381;-60
2021/10/18 07:45:06;;;;;;;;;17.33;16.00;;;;;18.52;46.29;101825.13;4979128;28;45346;-57
2021/10/18 07:47:31;;;;;;;;;17.67;16.00;;;;;18.52;46.21;101823.38;4978796;28;46231;-59
2021/10/18 07:49:56;;;;;;;;;16.00;16.00;;;;;18.52;46.41;101822.47;4978585;28;45265;-52
2021/10/18 07:52:22;;;;;;;;;16.67;15.00;;;;;18.51;46.27;101832.22;4979220;28;45293;-54
2021/10/18 07:54:52;;;;;;;;;15.00;15.00;;;;;18.51;45.97;101836.66;4979292;28;45560;-49
2021/10/18 07:57:18;;;;;;;;;19.33;16.33;;;;;18.50;45.89;101837.56;4978555;28;46377;-53
2021/10/18 07:59:43;;;;;;;;;15.67;15.67;;;;;18.50;46.30;101835.78;4978765;28;45230;-54
2021/10/18 08:02:08;;;;;;;;;19.25;17.50;;;;;18.49;45.93;101838.44;4978587;28;45317;-59
2021/10/18 08:04:34;;;;;;;;;15.33;14.33;;;;;18.49;46.82;101843.75;4978995;28;45421;-58
2021/10/18 08:06:59;;;;;;;;;15.33;14.00;;;;;18.48;46.48;101850.88;4978854;28;46057;-55
2021/10/18 08:09:26;;;;;;;;;19.00;16.67;;;;;18.47;46.44;101849.09;4978409;28;45385;-55
2021/10/18 08:11:52;;;;;;;;;15.67;14.67;;;;;18.47;46.19;101842.88;4961149;28;45310;-59
2021/10/18 08:14:18;;;;;;;;;15.00;15.00;;;;;18.47;46.12;101840.19;4978682;28;45242;-59
2021/10/18 08:16:44;;;;;;;;;15.67;15.33;;;;;18.46;46.42;101844.66;4978410;28;47165;-56
2021/10/18 08:19:09;;;;;;;;;16.33;13.00;;;;;18.46;46.34;101857.06;4978618;28;45398;-59
2021/10/18 08:21:35;;;;;;;;;18.00;15.33;;;;;18.45;46.40;101857.94;4978571;28;45632;-56
2021/10/18 08:24:00;;;;;;;;;14.00;13.00;;;;;18.44;46.45;101864.16;4978578;28;45444;-50
2021/10/18 08:26:26;;;;;;;;;14.33;13.33;;;;;18.44;46.32;101870.41;4978100;28;46243;-60
2021/10/18 08:28:51;;;;;;;;;14.00;14.00;;;;;18.45;46.49;101873.91;4978237;28;45285;-48
2021/10/18 08:31:16;;;;;;;;;19.00;15.00;;;;;18.44;46.64;101870.41;4978336;28;45488;-50
2021/10/18 08:33:42;;;;;;;;;16.00;14.67;;;;;18.44;46.42;101872.16;4978355;28;45424;-52
2021/10/18 08:36:08;;;;;;;;;14.67;13.67;;;;;18.43;46.37;101870.38;4977814;28;47003;-51
2021/10/18 08:38:46;;;;;;;;;16.67;14.67;;;;;18.43;46.40;101867.69;4978103;28;45323;-54
2021/10/18 08:41:26;;;;;;;;;15.33;14.00;;;;;18.43;46.47;101857.06;4978046;28;45365;-53
2021/10/18 08:46:22;;;;;;;;;14.33;12.00;;;;;18.40;46.46;101848.19;4977961;28;45258;-54
2021/10/18 08:48:50;;;;;;;;;15.33;13.67;;;;;18.42;46.52;101850.88;4977767;28;45388;-50
2021/10/18 08:51:15;;;;;;;;;17.33;14.67;;;;;18.40;46.78;101847.31;4978180;28;45332;-52
2021/10/18 08:53:41;;;;;;;;;19.00;17.67;;;;;18.39;46.34;101846.41;4978117;28;45551;-52
2021/10/18 08:56:06;;;;;;;;;16.33;15.00;;;;;18.39;46.52;101846.41;4977865;28;45446;-55
2021/10/18 08:58:32;;;;;;;;;18.33;16.00;;;;;18.39;46.62;101842.84;4977615;28;45326;-52
2021/10/18 09:00:57;;;;;;;;;17.00;14.67;;;;;18.39;46.77;101843.75;4977843;28;45354;-50
2021/10/18 09:03:32;;;;;;;;;16.33;15.33;;;;;18.37;46.89;101842.88;4978118;28;45541;-54
2021/10/18 09:06:23;;;;;;;;;20.00;14.67;;;;;18.37;46.68;101841.97;4977837;28;46410;-49
2021/10/18 09:08:50;;;;;;;;;19.67;17.00;;;;;18.35;46.76;101839.31;4977943;28;45432;-53
2021/10/18 09:11:19;;;;;;;;;18.33;15.67;;;;;18.35;47.08;101839.31;4977600;28;45385;-51
2021/10/18 09:13:50;;;;;;;;;18.00;17.67;;;;;18.36;47.04;101835.75;4977881;28;45775;-58
2021/10/18 09:16:28;;;;;;;;;14.67;14.67;;;;;18.32;47.09;101833.97;4977598;28;47162;-53
2021/10/18 09:19:03;;;;;;;;;16.33;15.00;;;;;18.34;47.17;101834.84;4977766;28;45925;-51
2021/10/18 09:21:30;;;;;;;;;15.00;15.00;;;;;18.33;46.89;101830.44;4977301;28;45310;-56
2021/10/18 09:23:56;;;;;;;;;14.67;13.67;;;;;18.33;47.25;101825.09;4977649;28;45338;-51
2021/10/18 09:26:24;;;;;;;;;15.33;13.67;;;;;18.32;47.26;101823.31;4977452;28;46173;-51
2021/10/18 09:28:54;;;;;;;;;17.67;15.67;;;;;18.32;47.18;101827.78;4977616;28;45444;-52
2021/10/18 09:31:20;;;;;;;;;15.00;14.00;;;;;18.31;47.34;101829.53;4977564;28;45344;-49
2021/10/18 09:33:57;;;;;;;;;18.00;15.33;;;;;18.32;47.24;101833.97;4977571;28;45199;-58
2021/10/18 09:36:30;;;;;;;;;19.33;17.67;;;;;18.31;47.20;101836.63;4977320;28;47235;-55
2021/10/18 09:39:29;;;;;;;;;15.00;15.00;;;;;18.31;47.09;101825.97;4976989;28;45217;-55
2021/10/18 09:42:07;;;;;;;;;18.00;16.00;;;;;18.30;47.10;101819.75;4916822;28;45463;-54
2021/10/18 10:52:58;;;;;;;;;14.00;14.00;;;;;18.19;48.27;101833.03;4980282;28;45286;-58
2021/10/18 10:55:27;;;;;;;;;12.67;11.67;;;;;18.19;48.35;101827.72;4919371;28;46272;-55
2021/10/18 10:57:57;;;;;;;;;15.00;14.00;;;;;18.19;48.55;101829.50;4919496;28;45468;-59
2021/10/18 11:00:31;;;;;;;;;13.33;12.00;;;;;18.20;48.28;101823.28;4919597;28;45412;-57
2021/10/18 11:03:23;;;;;;;;;17.00;14.67;;;;;18.19;48.64;101816.19;4919784;28;45571;-48
2021/10/18 11:05:58;;;;;;;;;14.67;13.33;;;;;18.19;48.52;101811.75;4919313;28;46888;-57
2021/10/18 11:08:31;;;;;;;;;17.33;15.00;;;;;18.18;48.47;101809.97;4919265;28;45453;-52
2021/10/18 11:11:16;;;;;;;;;16.00;13.67;;;;;18.17;48.65;101802.88;4919589;28;45508;-60
2021/10/18 11:13:42;;;;;;;;;12.33;12.33;;;;;18.18;48.44;101809.97;4919730;28;45486;-51
2021/10/18 11:16:08;;;;;;;;;13.33;12.67;;;;;18.17;48.60;101813.50;4919172;28;46234;-54
2021/10/18 11:18:34;;;;;;;;;17.00;15.00;;;;;18.18;48.73;101815.31;4918979;28;45477;-56
2021/10/18 11:21:36;;;;;;;;;14.33;13.67;;;;;18.17;48.64;101806.41;4919151;28;45366;-53
2021/10/18 11:24:09;;;;;;;;;15.00;15.00;;;;;18.17;49.27;101819.72;4900157;29;45291;-60
2021/10/18 11:26:40;;;;;;;;;15.33;15.33;;;;;18.18;48.81;101825.94;4900051;29;47192;-62
2021/10/18 11:29:12;;;;;;;;;15.33;14.67;;;;;18.16;48.85;101817.94;4899831;29;45339;-62
2021/10/18 11:31:38;;;;;;;;;15.00;14.67;;;;;18.17;48.78;101809.09;4928838;28;45446;-60
2021/10/18 11:34:12;;;;;;;;;16.00;14.33;;;;;18.18;48.96;101812.63;4938671;28;45359;-67
2021/10/18 11:36:41;;;;;;;;;13.33;12.67;;;;;18.16;48.93;101812.63;4921910;28;47067;-53
2021/10/18 11:39:06;;;;;;;;;16.33;15.00;;;;;18.17;49.18;101805.53;4937960;28;45193;-56
2021/10/18 11:41:31;;;;;;;;;17.33;15.33;;;;;18.16;49.05;101801.97;4938062;28;45513;-61
2021/10/18 11:43:57;;;;;;;;;16.00;15.00;;;;;18.15;48.99;101797.50;4922124;28;45315;-58
2021/10/18 11:46:22;;;;;;;;;17.00;15.00;;;;;18.15;49.17;101789.53;4936418;28;45555;-57
2021/10/18 11:48:47;;;;;;;;;18.00;15.33;;;;;18.16;48.98;101779.78;4937687;28;45346;-60
2021/10/18 11:51:13;;;;;;;;;14.00;14.00;;;;;18.15;49.04;101783.31;4938084;28;45338;-65
2021/10/18 11:53:43;;;;;;;;;15.67;14.33;;;;;18.15;49.05;101770.00;4938310;28;45572;-68
2021/10/18 11:56:09;;;;;;;;;13.00;13.00;;;;;18.15;49.11;101757.59;4937589;28;46234;-66
2021/10/18 11:58:38;;;;;;;;;13.00;13.00;;;;;18.14;49.25;101755.84;4941121;28;45585;-62
2021/10/18 12:01:10;;;;;;;;;16.33;14.67;;;;;18.14;48.99;101755.84;4978590;28;45349;-59
2021/10/18 12:03:36;;;;;;;;;15.00;13.67;;;;;18.15;49.00;101756.69;4978608;28;45662;-59
2021/10/18 12:06:04;;;;;;;;;14.33;12.00;;;;;18.14;49.36;101755.84;4978565;28;46996;-53
2021/10/18 12:08:35;;;;;;;;;16.00;13.67;;;;;18.14;49.16;101745.19;4978261;28;45452;-58
2021/10/18 12:11:05;;;;;;;;;18.00;13.00;;;;;18.14;49.20;101726.56;4977909;28;45412;-60
2021/10/18 12:13:33;;;;;;;;;14.00;13.67;;;;;18.14;49.36;101728.34;4978610;28;45333;-61
2021/10/18 12:16:11;;;;;;;;;15.00;13.00;;;;;18.15;49.27;101743.41;4978382;28;46942;-64
2021/10/18 12:18:57;;;;;;;;;16.00;14.00;;;;;18.14;49.25;101734.56;4978326;28;45435;-62
2021/10/18 12:21:27;;;;;;;;;16.00;15.33;;;;;18.14;49.15;101731.88;4978472;28;45375;-58